createdAt,value
2022-10-21T00:01:33.367Z,15.97
2022-10-21T00:04:02.639Z,16.01
2022-10-21T00:06:30.333Z,16.01
2022-10-21T00:08:58.152Z,15.98
2022-10-21T00:11:25.841Z,15.98
2022-10-21T00:13:53.406Z,16.02
2022-10-21T00:16:21.048Z,16.00
2022-10-21T00:18:50.242Z,16.03
2022-10-21T00:21:20.813Z,16.03
2022-10-21T00:23:49.830Z,16.06
2022-10-21T00:26:18.651Z,16.11
2022-10-21T00:28:46.464Z,16.11
2022-10-21T00:31:16.756Z,16.16
2022-10-21T00:33:45.178Z,16.23
2022-10-21T00:36:15.667Z,16.19
2022-10-21T00:38:44.962Z,16.23
2022-10-21T00:41:13.348Z,16.20
2022-10-21T00:43:55.536Z,16.13
2022-10-21T00:46:30.754Z,16.09
2022-10-21T00:49:00.995Z,16.08
2022-10-21T00:51:31.047Z,16.07
2022-10-21T00:53:58.813Z,16.07
2022-10-21T00:56:29.089Z,16.02
2022-10-21T00:59:00.507Z,16.07
2022-10-21T01:01:28.205Z,16.09
2022-10-21T01:03:56.007Z,16.06
2022-10-21T01:06:26.731Z,16.11
2022-10-21T01:08:57.885Z,16.11
2022-10-21T01:11:27.888Z,16.14
2022-10-21T01:14:21.373Z,16.17
2022-10-21T01:16:54.346Z,16.18
2022-10-21T01:20:03.298Z,16.14
2022-10-21T01:22:52.691Z,16.11
2022-10-21T01:25:58.730Z,16.07
2022-10-21T01:28:41.330Z,16.02
2022-10-21T01:31:17.039Z,15.97
2022-10-21T01:33:51.492Z,15.98
2022-10-21T01:36:32.464Z,15.97
2022-10-21T01:39:14.054Z,15.95
2022-10-21T01:41:45.519Z,15.97
2022-10-21T01:44:22.098Z,15.92
2022-10-21T01:46:57.579Z,15.92
2022-10-21T01:49:30.153Z,15.91
2022-10-21T01:52:00.278Z,15.88
2022-10-21T01:54:32.046Z,15.84
2022-10-21T01:57:02.529Z,15.81
2022-10-21T01:59:32.692Z,15.78
2022-10-21T02:02:04.163Z,15.78
2022-10-21T02:04:34.973Z,15.78
2022-10-21T02:07:03.339Z,15.74
2022-10-21T02:12:02.758Z,15.71
2022-10-21T02:14:33.390Z,15.73
2022-10-21T02:17:04.695Z,15.70
2022-10-21T02:19:32.409Z,15.67
2022-10-21T02:22:03.037Z,15.64
2022-10-21T02:24:37.297Z,15.64
2022-10-21T02:27:05.805Z,15.60
2022-10-21T02:29:36.387Z,15.61
2022-10-21T02:32:14.787Z,15.58
2022-10-21T02:34:56.592Z,15.60
2022-10-21T02:37:33.941Z,15.57
2022-10-21T02:40:08.654Z,15.56
2022-10-21T02:42:40.982Z,15.56
2022-10-21T02:45:10.856Z,15.55
2022-10-21T02:47:40.957Z,15.55
2022-10-21T02:50:09.315Z,15.54
2022-10-21T02:52:36.927Z,15.52
2022-10-21T02:55:04.896Z,15.52
2022-10-21T02:57:32.434Z,15.55
2022-10-21T02:59:59.973Z,15.51
2022-10-21T03:02:27.590Z,15.47
2022-10-21T03:04:56.522Z,15.47
2022-10-21T03:07:24.079Z,15.49
2022-10-21T03:09:51.675Z,15.49
2022-10-21T03:12:19.269Z,15.47
2022-10-21T03:14:46.878Z,15.43
2022-10-21T03:17:14.452Z,15.46
2022-10-21T03:19:42.039Z,15.43
2022-10-21T03:22:10.983Z,15.48
2022-10-21T03:24:38.584Z,15.48
2022-10-21T03:27:06.849Z,15.53
2022-10-21T03:29:34.420Z,15.54
2022-10-21T03:32:02.053Z,15.56
2022-10-21T03:34:29.580Z,15.55
2022-10-21T03:36:57.164Z,15.60
2022-10-21T03:39:26.158Z,15.60
2022-10-21T03:41:53.756Z,15.59
2022-10-21T03:44:21.391Z,15.62
2022-10-21T03:46:49.003Z,15.66
2022-10-21T03:49:21.043Z,15.71
2022-10-21T03:51:49.101Z,15.76
2022-10-21T03:54:16.807Z,15.76
2022-10-21T03:56:48.261Z,15.77
2022-10-21T03:59:18.088Z,15.75
2022-10-21T04:01:45.747Z,15.71
2022-10-21T04:04:14.369Z,15.73
2022-10-21T04:06:43.157Z,15.75
2022-10-21T04:09:10.843Z,15.73
2022-10-21T04:11:38.608Z,15.75
2022-10-21T04:14:11.457Z,15.75
2022-10-21T04:16:47.948Z,15.74
2022-10-21T04:19:18.424Z,15.72
2022-10-21T04:21:46.933Z,15.72
2022-10-21T04:24:14.583Z,15.78
2022-10-21T04:26:42.828Z,15.75
2022-10-21T04:29:11.773Z,15.74
2022-10-21T04:31:39.357Z,15.73
2022-10-21T04:34:06.980Z,15.73
2022-10-21T04:36:34.555Z,15.70
2022-10-21T04:39:02.131Z,15.72
2022-10-21T04:41:29.814Z,15.70
2022-10-21T04:43:57.457Z,15.71
2022-10-21T04:46:26.569Z,15.72
2022-10-21T04:48:54.162Z,15.71
2022-10-21T04:51:21.897Z,15.70
2022-10-21T04:53:49.579Z,15.74
2022-10-21T04:56:27.078Z,15.70
2022-10-21T04:58:54.679Z,15.73
2022-10-21T05:01:22.534Z,15.75
2022-10-21T05:03:51.572Z,15.76
2022-10-21T05:06:19.131Z,15.73
2022-10-21T05:08:46.789Z,15.73
2022-10-21T05:11:14.386Z,15.81
2022-10-21T05:13:41.993Z,15.88
2022-10-21T05:16:09.557Z,15.95
2022-10-21T05:18:37.137Z,16.00
2022-10-21T05:21:06.569Z,16.07
2022-10-21T05:23:34.124Z,16.09
2022-10-21T05:26:01.752Z,16.13
2022-10-21T05:28:29.341Z,16.17
2022-10-21T05:30:56.954Z,16.19
2022-10-21T05:33:24.753Z,16.23
2022-10-21T05:36:00.886Z,16.21
2022-10-21T05:38:29.922Z,16.21
2022-10-21T05:40:57.579Z,16.24
2022-10-21T05:43:25.973Z,16.26
2022-10-21T05:45:53.685Z,16.22
2022-10-21T05:48:21.678Z,16.23
2022-10-21T05:50:53.166Z,16.23
2022-10-21T05:53:23.661Z,16.21
2022-10-21T05:55:59.605Z,16.22
2022-10-21T05:58:27.867Z,16.25
2022-10-21T06:00:55.924Z,16.26
2022-10-21T06:03:24.449Z,16.28
2022-10-21T06:05:52.444Z,16.32
2022-10-21T06:08:20.044Z,16.32
2022-10-21T06:10:47.645Z,16.30
2022-10-21T06:13:17.775Z,16.27
2022-10-21T06:15:48.775Z,16.24
2022-10-21T06:18:18.700Z,16.19
2022-10-21T06:20:46.281Z,16.19
2022-10-21T06:23:15.312Z,16.21
2022-10-21T06:25:43.026Z,16.24
2022-10-21T06:28:10.659Z,16.25
2022-10-21T06:30:39.578Z,16.19
2022-10-21T06:33:07.199Z,16.24
2022-10-21T06:35:34.820Z,16.29
2022-10-21T06:38:03.298Z,16.32
2022-10-21T06:40:30.988Z,16.32
2022-10-21T06:42:58.564Z,16.32
2022-10-21T06:45:26.129Z,16.31
2022-10-21T06:47:55.091Z,16.35
2022-10-21T06:50:22.669Z,16.40
2022-10-21T06:52:50.762Z,16.36
2022-10-21T06:55:18.823Z,16.33
2022-10-21T06:57:46.379Z,16.35
2022-10-21T07:00:15.136Z,16.32
2022-10-21T07:02:42.968Z,16.20
2022-10-21T07:05:11.931Z,16.13
2022-10-21T07:07:39.621Z,16.06
2022-10-21T07:10:07.800Z,16.02
2022-10-21T07:12:35.378Z,15.97
2022-10-21T07:15:02.981Z,15.98
2022-10-21T07:17:31.691Z,15.97
2022-10-21T07:19:59.277Z,16.00
2022-10-21T07:22:28.220Z,16.03
2022-10-21T07:24:55.890Z,16.02
2022-10-21T07:27:23.535Z,16.01
2022-10-21T07:29:51.084Z,16.01
2022-10-21T07:32:18.667Z,16.01
2022-10-21T07:34:46.298Z,16.02
2022-10-21T07:37:14.083Z,15.99
2022-10-21T07:39:43.052Z,15.98
2022-10-21T07:42:10.852Z,15.97
2022-10-21T07:44:38.477Z,16.00
2022-10-21T07:47:06.084Z,16.02
2022-10-21T07:49:33.639Z,16.04
2022-10-21T07:52:01.250Z,16.04
2022-10-21T07:54:29.018Z,16.09
2022-10-21T07:56:58.452Z,16.11
2022-10-21T07:59:26.081Z,16.07
2022-10-21T08:01:53.911Z,16.09
2022-10-21T08:04:24.799Z,16.05
2022-10-21T08:06:52.495Z,16.11
2022-10-21T08:09:20.209Z,16.14
2022-10-21T08:11:48.081Z,16.16
2022-10-21T08:14:17.073Z,16.23
2022-10-21T08:16:44.797Z,16.24
2022-10-21T08:19:19.188Z,16.19
2022-10-21T08:21:46.859Z,16.21
2022-10-21T08:24:14.444Z,16.24
2022-10-21T08:26:42.090Z,16.23
2022-10-21T08:29:09.665Z,16.28
2022-10-21T08:31:39.790Z,16.27
2022-10-21T08:34:07.476Z,16.28
2022-10-21T08:36:35.092Z,16.29
2022-10-21T08:39:02.710Z,16.33
2022-10-21T08:41:47.658Z,16.38
2022-10-21T08:44:28.152Z,16.40
2022-10-21T08:47:00.285Z,16.37
2022-10-21T08:49:31.318Z,16.40
2022-10-21T08:52:04.087Z,16.43
2022-10-21T08:54:46.858Z,16.46
2022-10-21T08:57:14.913Z,16.45
2022-10-21T08:59:42.776Z,16.43
2022-10-21T09:02:30.119Z,16.47
2022-10-21T09:05:16.010Z,16.45
2022-10-21T09:07:52.960Z,16.48
2022-10-21T09:10:30.044Z,16.46
2022-10-21T09:13:05.064Z,16.50
2022-10-21T09:15:41.253Z,16.50
2022-10-21T09:18:31.675Z,16.51
2022-10-21T09:21:08.546Z,16.53
2022-10-21T09:23:48.468Z,16.47
2022-10-21T09:26:30.623Z,16.48
2022-10-21T09:28:58.471Z,16.48
2022-10-21T09:31:26.029Z,16.47
2022-10-21T09:34:00.381Z,16.55
2022-10-21T09:36:35.492Z,16.60
2022-10-21T09:39:07.370Z,16.54
2022-10-21T09:41:41.234Z,16.60
2022-10-21T09:44:14.650Z,16.63
2022-10-21T09:46:42.219Z,16.64
2022-10-21T09:49:54.087Z,16.68
2022-10-21T09:52:08.444Z,16.77
2022-10-21T09:54:40.834Z,16.92
2022-10-21T09:57:14.782Z,17.05
2022-10-21T09:59:52.640Z,17.11
2022-10-21T10:02:28.225Z,17.12
2022-10-21T10:04:57.263Z,17.09
2022-10-21T10:07:36.055Z,17.12
2022-10-21T10:10:24.119Z,17.09
2022-10-21T10:12:57.507Z,17.11
2022-10-21T10:15:33.217Z,17.13
2022-10-21T10:18:01.775Z,17.09
2022-10-21T10:20:31.113Z,17.08
2022-10-21T10:23:10.747Z,17.11
2022-10-21T10:25:40.356Z,17.11
2022-10-21T10:28:20.703Z,17.14
2022-10-21T10:30:51.248Z,17.11
2022-10-21T10:33:21.604Z,17.11
2022-10-21T10:35:52.611Z,17.16
2022-10-21T10:38:28.914Z,17.17
2022-10-21T10:41:05.078Z,17.20
2022-10-21T10:43:34.765Z,17.24
2022-10-21T10:46:04.870Z,17.24
2022-10-21T10:48:38.766Z,17.25
2022-10-21T10:51:23.341Z,17.24
2022-10-21T10:54:00.774Z,17.28
2022-10-21T10:56:30.330Z,17.33
2022-10-21T10:59:11.947Z,17.32
2022-10-21T11:01:47.344Z,17.41
2022-10-21T11:04:21.256Z,17.47
2022-10-21T11:06:54.938Z,17.57
2022-10-21T11:09:27.322Z,17.68
2022-10-21T11:11:56.346Z,17.78
2022-10-21T11:14:24.302Z,17.90
2022-10-21T11:17:06.093Z,17.97
2022-10-21T11:19:41.938Z,18.02
2022-10-21T11:22:21.927Z,18.16
2022-10-21T11:24:56.185Z,18.87
2022-10-21T11:27:52.047Z,19.18
2022-10-21T11:30:22.722Z,19.41
2022-10-21T11:33:03.504Z,19.41
2022-10-21T11:35:40.444Z,19.61
2022-10-21T11:38:32.019Z,19.89
2022-10-21T11:41:07.651Z,20.43
2022-10-21T11:43:45.987Z,21.62
2022-10-21T11:46:20.554Z,22.04
2022-10-21T11:49:01.670Z,21.91
2022-10-21T11:51:38.445Z,21.31
2022-10-21T11:54:25.559Z,20.55
2022-10-21T11:57:00.445Z,19.97
2022-10-21T11:59:39.867Z,19.64
2022-10-21T12:02:15.861Z,19.42
2022-10-21T12:04:52.999Z,19.46
2022-10-21T12:07:36.456Z,19.56
2022-10-21T12:10:13.506Z,19.43
2022-10-21T12:12:46.405Z,19.29
2022-10-21T12:15:20.609Z,19.26
2022-10-21T12:17:49.533Z,19.25
2022-10-21T12:20:23.918Z,19.23
2022-10-21T12:22:57.730Z,19.17
2022-10-21T12:25:35.294Z,19.26
2022-10-21T12:28:09.227Z,19.56
2022-10-21T12:30:43.177Z,20.11
2022-10-21T12:33:18.745Z,20.56
2022-10-21T12:35:52.863Z,20.97
2022-10-21T12:38:26.168Z,21.10
2022-10-21T12:41:27.520Z,20.92
2022-10-21T12:44:00.010Z,20.62
2022-10-21T12:46:30.272Z,20.38
2022-10-21T12:49:01.194Z,20.17
2022-10-21T12:51:31.108Z,20.00
2022-10-21T12:54:08.657Z,19.86
2022-10-21T12:56:43.771Z,19.76
2022-10-21T12:59:27.892Z,19.62
2022-10-21T13:02:27.138Z,19.39
2022-10-21T13:04:57.326Z,19.36
2022-10-21T13:07:38.218Z,19.33
2022-10-21T13:10:34.780Z,19.27
2022-10-21T13:13:33.367Z,19.42
2022-10-21T13:16:22.876Z,19.49
2022-10-21T13:18:55.928Z,19.50
2022-10-21T13:21:33.919Z,19.47
2022-10-21T13:24:12.798Z,19.41
2022-10-21T13:26:42.387Z,19.44
2022-10-21T13:29:32.776Z,19.42
2022-10-21T13:32:31.478Z,19.36
2022-10-21T13:35:08.747Z,19.35
2022-10-21T13:37:39.940Z,19.32
2022-10-21T13:40:17.707Z,19.26
2022-10-21T13:42:50.028Z,19.24
2022-10-21T13:45:26.567Z,19.23
2022-10-21T13:48:06.078Z,19.15
2022-10-21T13:50:38.551Z,19.18
2022-10-21T13:53:23.636Z,19.13
2022-10-21T13:56:00.420Z,19.08
2022-10-21T13:58:29.731Z,19.09
2022-10-21T14:01:07.616Z,19.17
2022-10-21T14:03:35.597Z,19.14
2022-10-21T14:06:05.320Z,19.15
2022-10-21T14:08:35.721Z,19.20
2022-10-21T14:11:16.532Z,19.18
2022-10-21T14:13:44.634Z,19.16
2022-10-21T14:16:20.098Z,19.18
2022-10-21T14:18:50.110Z,19.15
2022-10-21T14:21:22.431Z,19.10
2022-10-21T14:23:51.450Z,19.10
2022-10-21T14:26:19.951Z,19.09
2022-10-21T14:28:50.128Z,19.13
2022-10-21T14:31:19.335Z,19.10
2022-10-21T14:33:47.659Z,19.12
2022-10-21T14:36:20.410Z,19.13
2022-10-21T14:39:00.468Z,19.08
2022-10-21T14:41:33.408Z,19.05
2022-10-21T14:44:07.854Z,19.07
2022-10-21T14:46:48.610Z,19.00
2022-10-21T14:49:23.656Z,18.95
2022-10-21T14:51:57.179Z,18.92
2022-10-21T14:54:30.659Z,18.90
2022-10-21T14:57:00.078Z,18.91
2022-10-21T14:59:35.182Z,18.92
2022-10-21T15:02:05.613Z,18.91
2022-10-21T15:04:50.510Z,18.85
2022-10-21T15:10:00.631Z,18.76
2022-10-21T15:12:32.822Z,18.72
2022-10-21T15:15:02.961Z,18.71
2022-10-21T15:17:32.107Z,18.67
2022-10-21T15:19:59.690Z,18.70
2022-10-21T15:22:30.910Z,18.63
2022-10-21T15:25:05.826Z,18.60
2022-10-21T15:27:42.450Z,18.64
2022-10-21T15:30:18.702Z,18.59
2022-10-21T15:32:48.309Z,18.54
2022-10-21T15:35:18.209Z,18.51
2022-10-21T15:37:49.183Z,18.49
2022-10-21T15:40:17.903Z,18.41
2022-10-21T15:42:46.472Z,18.39
2022-10-21T15:45:15.558Z,18.39
2022-10-21T15:47:43.188Z,18.36
2022-10-21T15:50:16.283Z,18.33
2022-10-21T15:52:44.236Z,18.30
2022-10-21T15:55:12.829Z,18.26
2022-10-21T15:57:41.932Z,18.26
2022-10-21T16:00:17.572Z,18.20
2022-10-21T16:02:45.665Z,18.21
2022-10-21T16:05:14.826Z,18.16
2022-10-21T16:07:42.986Z,18.12
2022-10-21T16:10:19.078Z,18.12
2022-10-21T16:12:46.862Z,18.04
2022-10-21T16:15:15.654Z,18.01
2022-10-21T16:17:45.912Z,17.97
2022-10-21T16:20:17.745Z,17.95
2022-10-21T16:22:45.490Z,17.88
2022-10-21T16:25:13.933Z,17.90
2022-10-21T16:27:54.730Z,17.86
2022-10-21T16:30:25.544Z,17.86
2022-10-21T16:32:53.187Z,17.81
2022-10-21T16:35:22.435Z,17.76
2022-10-21T16:37:50.962Z,17.79
2022-10-21T16:40:21.953Z,17.80
2022-10-21T16:42:50.574Z,17.77
2022-10-21T16:45:19.185Z,17.73
2022-10-21T16:47:52.540Z,17.74
2022-10-21T16:50:25.693Z,17.74
2022-10-21T16:52:53.309Z,17.72
2022-10-21T16:55:20.970Z,17.71
2022-10-21T16:57:48.588Z,17.74
2022-10-21T17:00:17.930Z,17.66
2022-10-21T17:02:48.655Z,17.64
2022-10-21T17:05:16.494Z,17.62
2022-10-21T17:07:45.483Z,17.63
2022-10-21T17:10:13.957Z,17.59
2022-10-21T17:12:41.725Z,17.61
2022-10-21T17:15:11.962Z,17.57
2022-10-21T17:17:39.788Z,17.54
2022-10-21T17:20:08.620Z,17.58
2022-10-21T17:22:36.270Z,17.55
2022-10-21T17:25:06.196Z,17.56
2022-10-21T17:27:33.774Z,17.52
2022-10-21T17:30:01.415Z,17.46
2022-10-21T17:32:29.156Z,17.41
2022-10-21T17:34:57.703Z,17.42
2022-10-21T17:37:25.387Z,17.44
2022-10-21T17:39:53.014Z,17.41
2022-10-21T17:42:21.998Z,17.37
2022-10-21T17:44:49.774Z,17.34
2022-10-21T17:47:17.435Z,17.36
2022-10-21T17:49:45.031Z,17.34
2022-10-21T17:52:12.626Z,17.35
2022-10-21T17:54:40.274Z,17.33
2022-10-21T17:57:07.852Z,17.35
2022-10-21T17:59:36.843Z,17.35
2022-10-21T18:02:04.465Z,17.26
2022-10-21T18:04:33.382Z,17.32
2022-10-21T18:07:02.184Z,17.29
2022-10-21T18:09:29.957Z,17.27
2022-10-21T18:12:01.954Z,17.25
2022-10-21T18:14:32.036Z,17.30
2022-10-21T18:17:00.954Z,17.28
2022-10-21T18:19:28.632Z,17.27
2022-10-21T18:21:56.337Z,17.26
2022-10-21T18:24:23.977Z,17.30
2022-10-21T18:26:51.582Z,17.25
2022-10-21T18:29:19.665Z,17.28
2022-10-21T18:31:47.439Z,17.28
2022-10-21T18:34:16.615Z,17.33
2022-10-21T18:36:44.395Z,17.35
2022-10-21T18:39:13.201Z,17.29
2022-10-21T18:41:41.276Z,17.28
2022-10-21T18:44:10.478Z,17.33
2022-10-21T18:46:39.424Z,17.35
2022-10-21T18:49:08.801Z,17.32
2022-10-21T18:51:37.958Z,17.33
2022-10-21T18:54:05.772Z,17.36
2022-10-21T18:56:33.448Z,17.38
2022-10-21T18:59:01.098Z,17.39
2022-10-21T19:01:28.821Z,17.33
2022-10-21T19:03:56.672Z,17.31
2022-10-21T19:06:35.848Z,17.33
2022-10-21T19:09:07.793Z,17.30
2022-10-21T19:11:35.392Z,17.22
2022-10-21T19:14:03.075Z,17.17
2022-10-21T19:16:30.735Z,17.15
2022-10-21T19:18:58.604Z,17.17
2022-10-21T19:21:26.432Z,17.14
2022-10-21T19:23:54.582Z,17.13
2022-10-21T19:26:24.483Z,17.14
2022-10-21T19:28:52.263Z,17.12
2022-10-21T19:31:21.189Z,17.12
2022-10-21T19:33:49.010Z,17.12
2022-10-21T19:36:16.599Z,17.14
2022-10-21T19:38:44.784Z,17.13
2022-10-21T19:41:15.871Z,17.16
2022-10-21T19:43:46.196Z,17.21
2022-10-21T19:46:20.047Z,17.25
2022-10-21T19:48:50.104Z,17.27
2022-10-21T19:51:20.658Z,17.30
2022-10-21T19:53:49.253Z,17.30
2022-10-21T19:56:18.827Z,17.33
2022-10-21T19:58:51.197Z,17.30
2022-10-21T20:01:20.586Z,17.32
2022-10-21T20:03:49.771Z,17.31
2022-10-21T20:06:20.079Z,17.27
2022-10-21T20:08:47.702Z,17.28
2022-10-21T20:11:17.437Z,17.34
2022-10-21T20:13:46.102Z,17.36
2022-10-21T20:16:18.097Z,17.37
2022-10-21T20:18:46.114Z,17.35
2022-10-21T20:21:14.153Z,17.37
2022-10-21T20:23:41.943Z,17.38
2022-10-21T20:26:09.553Z,17.39
2022-10-21T20:28:37.455Z,17.38
2022-10-21T20:31:06.755Z,17.39
2022-10-21T20:33:38.816Z,17.41
2022-10-21T20:36:08.000Z,17.37
2022-10-21T20:38:36.002Z,17.28
2022-10-21T20:41:07.314Z,17.17
2022-10-21T20:43:36.846Z,17.06
2022-10-21T20:46:06.507Z,17.10
2022-10-21T20:48:36.773Z,17.13
2022-10-21T20:51:06.059Z,17.18
2022-10-21T20:53:34.742Z,17.16
2022-10-21T20:56:03.710Z,17.18
2022-10-21T20:58:34.143Z,17.17
2022-10-21T21:01:07.752Z,17.13
2022-10-21T21:03:38.474Z,17.12
2022-10-21T21:06:06.950Z,17.16
2022-10-21T21:08:35.687Z,17.13
2022-10-21T21:11:03.944Z,17.15
2022-10-21T21:13:31.600Z,17.19
2022-10-21T21:16:07.851Z,17.18
2022-10-21T21:18:38.861Z,17.18
2022-10-21T21:21:10.151Z,17.19
2022-10-21T21:23:38.606Z,17.17
2022-10-21T21:26:07.684Z,17.15
2022-10-21T21:28:36.462Z,17.17
2022-10-21T21:31:04.797Z,17.11
2022-10-21T21:33:32.557Z,17.12
2022-10-21T21:36:02.947Z,17.08
2022-10-21T21:38:31.914Z,17.05
2022-10-21T21:41:00.119Z,17.05
2022-10-21T21:43:28.793Z,17.01
2022-10-21T21:45:56.709Z,16.95
2022-10-21T21:48:24.428Z,16.98
2022-10-21T21:50:52.331Z,17.01
2022-10-21T21:53:24.825Z,17.01
2022-10-21T21:55:52.409Z,16.97
2022-10-21T21:58:19.975Z,16.98
2022-10-21T22:00:47.539Z,17.01
2022-10-21T22:03:15.175Z,16.99
2022-10-21T22:05:42.879Z,17.00
2022-10-21T22:08:10.945Z,16.97
2022-10-21T22:10:40.130Z,16.93
2022-10-21T22:13:07.825Z,16.92
2022-10-21T22:15:47.721Z,16.98
2022-10-21T22:18:16.034Z,16.99
2022-10-21T22:20:43.678Z,16.96
2022-10-21T22:23:11.296Z,16.95
2022-10-21T22:25:40.291Z,16.93
2022-10-21T22:28:07.928Z,16.91
2022-10-21T22:30:35.921Z,16.94
2022-10-21T22:33:05.387Z,16.96
2022-10-21T22:35:33.015Z,16.91
2022-10-21T22:38:00.571Z,16.91
2022-10-21T22:40:28.215Z,16.90
2022-10-21T22:42:57.167Z,16.92
2022-10-21T22:45:24.842Z,16.86
2022-10-21T22:47:52.739Z,16.86
2022-10-21T22:50:20.317Z,16.88
2022-10-21T22:52:47.941Z,16.89
2022-10-21T22:55:15.554Z,16.88
2022-10-21T22:57:43.135Z,16.90
2022-10-21T23:00:13.682Z,16.91
2022-10-21T23:02:41.591Z,16.91
2022-10-21T23:05:09.870Z,16.92
2022-10-21T23:07:37.437Z,16.90
2022-10-21T23:12:38.981Z,16.88
2022-10-21T23:15:07.968Z,16.89
2022-10-21T23:17:37.337Z,16.89
2022-10-21T23:20:05.606Z,16.91
2022-10-21T23:22:33.398Z,16.89
2022-10-21T23:25:01.003Z,16.92
2022-10-21T23:27:28.665Z,16.97
2022-10-21T23:29:56.293Z,16.99
2022-10-21T23:32:23.926Z,16.97
2022-10-21T23:34:52.867Z,16.93
2022-10-21T23:39:53.280Z,16.87
2022-10-21T23:42:20.956Z,16.86
2022-10-21T23:44:48.586Z,16.81
2022-10-21T23:47:16.244Z,16.75
2022-10-21T23:49:44.113Z,16.69
2022-10-21T23:52:13.093Z,16.63
2022-10-21T23:54:40.689Z,16.64
2022-10-21T23:57:08.347Z,16.63
2022-10-21T23:59:36.487Z,16.63
